ドバイ の空港の天気 - METARとTAF

ドバイ国際空港 ( OMDB / DXB ) - アラブ首長国連邦 ドバイ
飛行場実況気象(Metar)
観測時間11/22 16:00 GST (11/22 12:00 UTC)
風向・風速西 6m/s
視程10km以上
天気現象
なし
気温29℃
湿度31%
気圧1012hPa
METAROMDB 221200Z 28011KT CAVOK 29/10 Q1012 NOSIG
過去の天気等 Google飛行場航空写真 Wunderground天気予報

過去48時間のMETAR

飛行場予報(TAF)
発表時間: 11/22 14:57 GST (11/22 10:57 UTC)
予報対象時間: 22日16時 GST ~ 23日22時 GST
風向・風速西北西 6m/s
視程10km以上
なし
22日19時 GST ~ 22日21時 GST に徐々に
風向・風速東南東 4m/s
23日8時 GST ~ 23日10時 GST に徐々に
風向・風速南 5m/s
23日14時 GST ~ 23日16時 GST に徐々に
風向・風速西北西 6m/s
23日20時 GST ~ 23日22時 GST に徐々に
風向・風速東 3m/s
TAF OMDB 221057Z 2212/2318 30012KT CAVOK
BECMG 2215/2217 12007KT
BECMG 2304/2306 19010KT
BECMG 2310/2312 29012KT
BECMG 2316/2318 08005KT